CFG925 EDDS-EDDH
Flight info
| Callsign | CFG925 |
|---|---|
| Flight time | 0h 56m |
| Altitude | 37000 |
| Route | OKIBA4H OKIBA N851 RIMKI Z99 LOHRE DCT MASEK DCT ELNAT/N0439F360 P605 NOLGO NOLGO3P |
| Aircraft | A320/M-SDE3FGHIRWY/LB1 |
Departure
| Time | 2026-04-23 17:11 |
|---|---|
| Airport | Stuttgart Airport (EDDS) |
Arrival
| Time | 2026-04-23 18:07 |
|---|---|
| Airport | Hamburg Helmut Schmidt Airport (EDDH) |
| Time | Latitude | Longitude | Altitude | Speed | Heading |
|---|---|---|---|---|---|
| 2026-04-23 16:50 | 48.68930 | 9.19652 | 1291 ft | 0 kts | 343° |
| 2026-04-23 17:05 | 48.68906 | 9.19664 | 1289 ft | 3 kts | 343° |
| 2026-04-23 17:05 | 48.68887 | 9.19673 | 1287 ft | 3 kts | 343° |
| 2026-04-23 17:05 | 48.68870 | 9.19679 | 1290 ft | 2 kts | 15° |
| 2026-04-23 17:05 | 48.68859 | 9.19671 | 1287 ft | 2 kts | 73° |
| 2026-04-23 17:06 | 48.68859 | 9.19667 | 1287 ft | 0 kts | 74° |
| 2026-04-23 17:07 | 48.68861 | 9.19679 | 1290 ft | 4 kts | 74° |
| 2026-04-23 17:08 | 48.68868 | 9.19716 | 1287 ft | 3 kts | 74° |
| 2026-04-23 17:08 | 48.68875 | 9.19754 | 1285 ft | 7 kts | 74° |
| 2026-04-23 17:08 | 48.68888 | 9.19829 | 1285 ft | 7 kts | 85° |
| 2026-04-23 17:08 | 48.68857 | 9.19880 | 1287 ft | 8 kts | 164° |
| 2026-04-23 17:09 | 48.68799 | 9.19934 | 1287 ft | 10 kts | 149° |
| 2026-04-23 17:09 | 48.68738 | 9.19963 | 1287 ft | 9 kts | 164° |
| 2026-04-23 17:09 | 48.68683 | 9.19986 | 1287 ft | 8 kts | 164° |
| 2026-04-23 17:09 | 48.68636 | 9.20007 | 1290 ft | 7 kts | 163° |
| 2026-04-23 17:10 | 48.68593 | 9.20025 | 1288 ft | 6 kts | 163° |
| 2026-04-23 17:10 | 48.68584 | 9.20067 | 1285 ft | 4 kts | 76° |
| 2026-04-23 17:10 | 48.68597 | 9.20138 | 1285 ft | 23 kts | 74° |
| 2026-04-23 17:10 | 48.68720 | 9.20784 | 1288 ft | 100 kts | 74° |
| 2026-04-23 17:11 | 48.68972 | 9.22101 | 1290 ft | 158 kts | 72° |
| 2026-04-23 17:11 | 48.69275 | 9.23721 | 1897 ft | 157 kts | 73° |
| 2026-04-23 17:11 | 48.69563 | 9.25307 | 2653 ft | 161 kts | 70° |
| 2026-04-23 17:11 | 48.69892 | 9.27031 | 3078 ft | 180 kts | 71° |
| 2026-04-23 17:12 | 48.70155 | 9.28408 | 3386 ft | 195 kts | 72° |
| 2026-04-23 17:12 | 48.70224 | 9.28769 | 3479 ft | 195 kts | 71° |
| 2026-04-23 17:12 | 48.70619 | 9.30843 | 3936 ft | 217 kts | 72° |
| 2026-04-23 17:12 | 48.71056 | 9.33156 | 4388 ft | 241 kts | 72° |
| 2026-04-23 17:13 | 48.71536 | 9.35705 | 5009 ft | 259 kts | 72° |
| 2026-04-23 17:13 | 48.72034 | 9.38356 | 5932 ft | 265 kts | 72° |
| 2026-04-23 17:13 | 48.72546 | 9.41060 | 6841 ft | 269 kts | 72° |
| 2026-04-23 17:13 | 48.73067 | 9.43802 | 7729 ft | 273 kts | 72° |
| 2026-04-23 17:14 | 48.73675 | 9.46534 | 8636 ft | 275 kts | 62° |
| 2026-04-23 17:14 | 48.74830 | 9.48836 | 9537 ft | 277 kts | 39° |
| 2026-04-23 17:14 | 48.76510 | 9.50249 | 10431 ft | 279 kts | 15° |
| 2026-04-23 17:14 | 48.78451 | 9.50470 | 11198 ft | 288 kts | 353° |
| 2026-04-23 17:15 | 48.80488 | 9.49734 | 11507 ft | 313 kts | 346° |
| 2026-04-23 17:15 | 48.82638 | 9.48799 | 11987 ft | 327 kts | 345° |
| 2026-04-23 17:15 | 48.84841 | 9.47802 | 12719 ft | 333 kts | 345° |
| 2026-04-23 17:15 | 48.87078 | 9.46786 | 13505 ft | 338 kts | 345° |
| 2026-04-23 17:16 | 48.89347 | 9.45765 | 14262 ft | 342 kts | 345° |
| 2026-04-23 17:16 | 48.91642 | 9.44744 | 14949 ft | 346 kts | 345° |
| 2026-04-23 17:16 | 48.93962 | 9.43719 | 15659 ft | 349 kts | 346° |
| 2026-04-23 17:16 | 48.96278 | 9.42703 | 16341 ft | 352 kts | 346° |
| 2026-04-23 17:17 | 48.98644 | 9.41666 | 17004 ft | 356 kts | 346° |
| 2026-04-23 17:17 | 49.01040 | 9.40616 | 17653 ft | 360 kts | 346° |
| 2026-04-23 17:17 | 49.03459 | 9.39556 | 18310 ft | 364 kts | 346° |
| 2026-04-23 17:17 | 49.05908 | 9.38483 | 18917 ft | 368 kts | 346° |
| 2026-04-23 17:18 | 49.10872 | 9.36306 | 20070 ft | 375 kts | 347° |
| 2026-04-23 17:18 | 49.13388 | 9.35196 | 20661 ft | 378 kts | 347° |
| 2026-04-23 17:18 | 49.15928 | 9.34075 | 21221 ft | 382 kts | 347° |
| 2026-04-23 17:19 | 49.18501 | 9.32939 | 21817 ft | 385 kts | 347° |
| 2026-04-23 17:19 | 49.21103 | 9.31876 | 22325 ft | 388 kts | 352° |
| 2026-04-23 17:19 | 49.23794 | 9.31420 | 22872 ft | 390 kts | 360° |
| 2026-04-23 17:19 | 49.26512 | 9.31213 | 23415 ft | 393 kts | 0° |
| 2026-04-23 17:20 | 49.29261 | 9.31005 | 23937 ft | 397 kts | 0° |
| 2026-04-23 17:20 | 49.34822 | 9.30600 | 24820 ft | 402 kts | 2° |
| 2026-04-23 17:21 | 49.40411 | 9.31249 | 25665 ft | 405 kts | 8° |
| 2026-04-23 17:21 | 49.43225 | 9.31666 | 26083 ft | 408 kts | 8° |
| 2026-04-23 17:21 | 49.48911 | 9.32524 | 26891 ft | 413 kts | 9° |
| 2026-04-23 17:22 | 49.51778 | 9.32955 | 27278 ft | 415 kts | 9° |
| 2026-04-23 17:22 | 49.57568 | 9.33816 | 28057 ft | 420 kts | 9° |
| 2026-04-23 17:23 | 49.63393 | 9.34668 | 28799 ft | 425 kts | 9° |
| 2026-04-23 17:23 | 49.66351 | 9.35105 | 29153 ft | 428 kts | 9° |
| 2026-04-23 17:23 | 49.72315 | 9.35999 | 29841 ft | 433 kts | 9° |
| 2026-04-23 17:24 | 49.75307 | 9.36575 | 30170 ft | 433 kts | 15° |
| 2026-04-23 17:24 | 49.78234 | 9.37655 | 30465 ft | 433 kts | 18° |
| 2026-04-23 17:24 | 49.84111 | 9.39922 | 30994 ft | 437 kts | 17° |
| 2026-04-23 17:25 | 49.90036 | 9.42206 | 31483 ft | 441 kts | 18° |
| 2026-04-23 17:25 | 49.93019 | 9.43353 | 31723 ft | 442 kts | 18° |
| 2026-04-23 17:26 | 49.98989 | 9.45653 | 32377 ft | 441 kts | 18° |
| 2026-04-23 17:26 | 50.04941 | 9.47964 | 33025 ft | 440 kts | 18° |
| 2026-04-23 17:27 | 50.11022 | 9.49381 | 33666 ft | 443 kts | 10° |
| 2026-04-23 17:27 | 50.14091 | 9.49891 | 33998 ft | 443 kts | 10° |
| 2026-04-23 17:27 | 50.17155 | 9.50398 | 34324 ft | 442 kts | 10° |
| 2026-04-23 17:27 | 50.20212 | 9.50902 | 34621 ft | 442 kts | 10° |
| 2026-04-23 17:28 | 50.23267 | 9.51410 | 34925 ft | 441 kts | 10° |
| 2026-04-23 17:28 | 50.26311 | 9.51920 | 35215 ft | 440 kts | 10° |
| 2026-04-23 17:28 | 50.29356 | 9.52435 | 35510 ft | 439 kts | 9° |
| 2026-04-23 17:28 | 50.32391 | 9.52950 | 35788 ft | 438 kts | 9° |
| 2026-04-23 17:29 | 50.35421 | 9.53460 | 36061 ft | 437 kts | 9° |
| 2026-04-23 17:29 | 50.38406 | 9.53958 | 36320 ft | 437 kts | 9° |
| 2026-04-23 17:29 | 50.44445 | 9.54971 | 36831 ft | 435 kts | 9° |
| 2026-04-23 17:30 | 50.46476 | 9.55314 | 36999 ft | 435 kts | 9° |
| 2026-04-23 17:30 | 50.53459 | 9.56504 | 37290 ft | 433 kts | 9° |
| 2026-04-23 17:30 | 50.56452 | 9.57015 | 37287 ft | 432 kts | 9° |
| 2026-04-23 17:31 | 50.62426 | 9.58033 | 37293 ft | 432 kts | 9° |
| 2026-04-23 17:31 | 50.68394 | 9.59057 | 37291 ft | 432 kts | 9° |
| 2026-04-23 17:32 | 50.74371 | 9.60094 | 37293 ft | 431 kts | 9° |
| 2026-04-23 17:32 | 50.80330 | 9.61224 | 37293 ft | 431 kts | 10° |
| 2026-04-23 17:33 | 50.86288 | 9.62409 | 37286 ft | 431 kts | 10° |
| 2026-04-23 17:33 | 50.92201 | 9.63573 | 37290 ft | 431 kts | 10° |
| 2026-04-23 17:34 | 50.98156 | 9.64737 | 37287 ft | 430 kts | 9° |
| 2026-04-23 17:35 | 51.07081 | 9.66457 | 37280 ft | 430 kts | 9° |
| 2026-04-23 17:35 | 51.15996 | 9.68215 | 37283 ft | 430 kts | 10° |
| 2026-04-23 17:36 | 51.21936 | 9.69390 | 37267 ft | 430 kts | 9° |
| 2026-04-23 17:36 | 51.27895 | 9.70390 | 37283 ft | 430 kts | 8° |
| 2026-04-23 17:37 | 51.33852 | 9.71293 | 37289 ft | 430 kts | 8° |
| 2026-04-23 17:38 | 51.42783 | 9.72718 | 37283 ft | 430 kts | 8° |
| 2026-04-23 17:38 | 51.48726 | 9.73701 | 37289 ft | 429 kts | 8° |
| 2026-04-23 17:39 | 51.54617 | 9.74786 | 37286 ft | 429 kts | 9° |
| 2026-04-23 17:39 | 51.60547 | 9.75944 | 37280 ft | 429 kts | 9° |
| 2026-04-23 17:40 | 51.66471 | 9.77094 | 37266 ft | 429 kts | 9° |
| 2026-04-23 17:40 | 51.71398 | 9.78030 | 37260 ft | 429 kts | 8° |
| 2026-04-23 17:41 | 51.77322 | 9.79157 | 37257 ft | 429 kts | 8° |
| 2026-04-23 17:41 | 51.86218 | 9.80854 | 37265 ft | 429 kts | 8° |
| 2026-04-23 17:42 | 51.95073 | 9.82556 | 37260 ft | 428 kts | 9° |
| 2026-04-23 17:43 | 52.00984 | 9.83709 | 37262 ft | 428 kts | 8° |
| 2026-04-23 17:43 | 52.06907 | 9.84866 | 37269 ft | 428 kts | 8° |
| 2026-04-23 17:44 | 52.12825 | 9.86023 | 37257 ft | 428 kts | 9° |
| 2026-04-23 17:44 | 52.21743 | 9.87767 | 36835 ft | 430 kts | 8° |
| 2026-04-23 17:45 | 52.24715 | 9.88394 | 36570 ft | 431 kts | 12° |
| 2026-04-23 17:45 | 52.30516 | 9.90789 | 36059 ft | 430 kts | 16° |
| 2026-04-23 17:45 | 52.33412 | 9.92067 | 35536 ft | 435 kts | 17° |
| 2026-04-23 17:46 | 52.39307 | 9.94670 | 33164 ft | 438 kts | 16° |
| 2026-04-23 17:46 | 52.42239 | 9.95963 | 31939 ft | 436 kts | 17° |
| 2026-04-23 17:46 | 52.45202 | 9.97128 | 30691 ft | 437 kts | 9° |
| 2026-04-23 17:47 | 52.48223 | 9.97683 | 29472 ft | 437 kts | 7° |
| 2026-04-23 17:47 | 52.51250 | 9.98206 | 28433 ft | 438 kts | 7° |
| 2026-04-23 17:47 | 52.57321 | 9.99256 | 26597 ft | 435 kts | 7° |
| 2026-04-23 17:48 | 52.60320 | 9.99778 | 25795 ft | 432 kts | 6° |
| 2026-04-23 17:48 | 52.63276 | 10.00293 | 25422 ft | 420 kts | 6° |
| 2026-04-23 17:48 | 52.66139 | 10.00790 | 25178 ft | 407 kts | 6° |
| 2026-04-23 17:48 | 52.68944 | 10.01280 | 24729 ft | 403 kts | 6° |
| 2026-04-23 17:49 | 52.71727 | 10.01768 | 24238 ft | 400 kts | 6° |
| 2026-04-23 17:49 | 52.74479 | 10.02250 | 23740 ft | 395 kts | 6° |
| 2026-04-23 17:49 | 52.77206 | 10.02728 | 23184 ft | 393 kts | 6° |
| 2026-04-23 17:49 | 52.79915 | 10.03204 | 22653 ft | 390 kts | 6° |
| 2026-04-23 17:50 | 52.82603 | 10.03703 | 22126 ft | 386 kts | 8° |
| 2026-04-23 17:50 | 52.87859 | 10.05491 | 20883 ft | 385 kts | 12° |
| 2026-04-23 17:50 | 52.90461 | 10.06473 | 20294 ft | 383 kts | 12° |
| 2026-04-23 17:51 | 52.93057 | 10.07471 | 19713 ft | 382 kts | 12° |
| 2026-04-23 17:51 | 52.95637 | 10.08463 | 19137 ft | 380 kts | 12° |
| 2026-04-23 17:51 | 53.00780 | 10.10421 | 17946 ft | 377 kts | 12° |
| 2026-04-23 17:52 | 53.03333 | 10.11383 | 17293 ft | 376 kts | 12° |
| 2026-04-23 17:52 | 53.08424 | 10.13287 | 16033 ft | 374 kts | 12° |
| 2026-04-23 17:52 | 53.10927 | 10.14221 | 15427 ft | 372 kts | 12° |
| 2026-04-23 17:53 | 53.15948 | 10.16119 | 14237 ft | 368 kts | 12° |
| 2026-04-23 17:53 | 53.18432 | 10.17064 | 13650 ft | 364 kts | 12° |
| 2026-04-23 17:53 | 53.20888 | 10.17997 | 13079 ft | 359 kts | 12° |
| 2026-04-23 17:54 | 53.23300 | 10.18909 | 12567 ft | 352 kts | 11° |
| 2026-04-23 17:54 | 53.25672 | 10.19804 | 12079 ft | 346 kts | 11° |
| 2026-04-23 17:54 | 53.30241 | 10.21540 | 11077 ft | 323 kts | 11° |
| 2026-04-23 17:55 | 53.34385 | 10.23133 | 10118 ft | 290 kts | 11° |
| 2026-04-23 17:55 | 53.36311 | 10.23873 | 9595 ft | 277 kts | 11° |
| 2026-04-23 17:55 | 53.38193 | 10.24590 | 9080 ft | 278 kts | 11° |
| 2026-04-23 17:56 | 53.40080 | 10.25306 | 8574 ft | 278 kts | 10° |
| 2026-04-23 17:56 | 53.43828 | 10.26731 | 7741 ft | 273 kts | 11° |
| 2026-04-23 17:56 | 53.45647 | 10.27429 | 7307 ft | 271 kts | 10° |
| 2026-04-23 17:57 | 53.47463 | 10.28128 | 6928 ft | 261 kts | 10° |
| 2026-04-23 17:57 | 53.49176 | 10.28792 | 6566 ft | 246 kts | 10° |
| 2026-04-23 17:57 | 53.52471 | 10.30057 | 5843 ft | 240 kts | 10° |
| 2026-04-23 17:58 | 53.54096 | 10.30679 | 5581 ft | 237 kts | 10° |
| 2026-04-23 17:58 | 53.55699 | 10.31292 | 5377 ft | 236 kts | 9° |
| 2026-04-23 17:58 | 53.57290 | 10.31905 | 5201 ft | 230 kts | 9° |
| 2026-04-23 17:58 | 53.58836 | 10.32238 | 5089 ft | 219 kts | 357° |
| 2026-04-23 17:59 | 53.60328 | 10.32155 | 4863 ft | 214 kts | 355° |
| 2026-04-23 17:59 | 53.61815 | 10.32017 | 4474 ft | 214 kts | 354° |
| 2026-04-23 17:59 | 53.63295 | 10.31883 | 4133 ft | 212 kts | 354° |
| 2026-04-23 17:59 | 53.64768 | 10.31755 | 3803 ft | 210 kts | 354° |
| 2026-04-23 18:00 | 53.66229 | 10.31629 | 3496 ft | 207 kts | 354° |
| 2026-04-23 18:00 | 53.67614 | 10.31522 | 3312 ft | 192 kts | 354° |
| 2026-04-23 18:00 | 53.68912 | 10.31428 | 3173 ft | 182 kts | 354° |
| 2026-04-23 18:00 | 53.70180 | 10.31339 | 3066 ft | 181 kts | 354° |
| 2026-04-23 18:01 | 53.71436 | 10.31232 | 3010 ft | 180 kts | 349° |
| 2026-04-23 18:01 | 53.72562 | 10.30423 | 3002 ft | 178 kts | 328° |
| 2026-04-23 18:01 | 53.73571 | 10.29246 | 2996 ft | 171 kts | 325° |
| 2026-04-23 18:01 | 53.74453 | 10.28033 | 3023 ft | 160 kts | 310° |
| 2026-04-23 18:02 | 53.74958 | 10.26367 | 3012 ft | 160 kts | 295° |
| 2026-04-23 18:02 | 53.75094 | 10.24506 | 3003 ft | 163 kts | 271° |
| 2026-04-23 18:02 | 53.74721 | 10.22659 | 3000 ft | 173 kts | 245° |
| 2026-04-23 18:02 | 53.73933 | 10.21069 | 3002 ft | 177 kts | 239° |
| 2026-04-23 18:03 | 53.73161 | 10.19464 | 2963 ft | 175 kts | 239° |
| 2026-04-23 18:03 | 53.72391 | 10.17868 | 2795 ft | 175 kts | 239° |
| 2026-04-23 18:03 | 53.71622 | 10.16292 | 2579 ft | 173 kts | 238° |
| 2026-04-23 18:03 | 53.70873 | 10.14763 | 2355 ft | 169 kts | 239° |
| 2026-04-23 18:04 | 53.70143 | 10.13278 | 2134 ft | 161 kts | 240° |
| 2026-04-23 18:04 | 53.69440 | 10.11843 | 1922 ft | 157 kts | 240° |
| 2026-04-23 18:04 | 53.68749 | 10.10435 | 1711 ft | 154 kts | 239° |
| 2026-04-23 18:04 | 53.68092 | 10.09100 | 1517 ft | 143 kts | 239° |
| 2026-04-23 18:05 | 53.67469 | 10.07833 | 1317 ft | 138 kts | 240° |
| 2026-04-23 18:05 | 53.66861 | 10.06595 | 1125 ft | 135 kts | 239° |
| 2026-04-23 18:05 | 53.66267 | 10.05389 | 939 ft | 132 kts | 237° |
| 2026-04-23 18:05 | 53.65689 | 10.04211 | 735 ft | 129 kts | 235° |
| 2026-04-23 18:06 | 53.65128 | 10.03075 | 563 ft | 124 kts | 236° |
| 2026-04-23 18:06 | 53.64567 | 10.01935 | 404 ft | 126 kts | 234° |
| 2026-04-23 18:06 | 53.64022 | 10.00837 | 232 ft | 125 kts | 237° |
| 2026-04-23 18:06 | 53.63463 | 9.99695 | 58 ft | 122 kts | 234° |
| 2026-04-23 18:07 | 53.63011 | 9.98760 | 42 ft | 69 kts | 231° |
| 2026-04-23 18:07 | 53.62847 | 9.98435 | 45 ft | 14 kts | 227° |
| 2026-04-23 18:07 | 53.62781 | 9.98352 | 44 ft | 11 kts | 199° |
| 2026-04-23 18:07 | 53.62720 | 9.98392 | 43 ft | 10 kts | 142° |
| 2026-04-23 18:08 | 53.62683 | 9.98444 | 43 ft | 10 kts | 131° |
| 2026-04-23 18:08 | 53.62697 | 9.98566 | 43 ft | 8 kts | 49° |
| 2026-04-23 18:08 | 53.62732 | 9.98637 | 43 ft | 10 kts | 50° |
| 2026-04-23 18:08 | 53.62785 | 9.98745 | 43 ft | 17 kts | 50° |
| 2026-04-23 18:09 | 53.62856 | 9.98887 | 43 ft | 15 kts | 50° |
| 2026-04-23 18:09 | 53.62921 | 9.99020 | 44 ft | 14 kts | 50° |
| 2026-04-23 18:09 | 53.62982 | 9.99142 | 44 ft | 13 kts | 50° |
| 2026-04-23 18:09 | 53.63037 | 9.99253 | 44 ft | 12 kts | 51° |
| 2026-04-23 18:10 | 53.63077 | 9.99348 | 45 ft | 9 kts | 56° |
| 2026-04-23 18:10 | 53.63110 | 9.99429 | 44 ft | 7 kts | 56° |
| 2026-04-23 18:10 | 53.63144 | 9.99511 | 45 ft | 10 kts | 52° |
| 2026-04-23 18:10 | 53.63188 | 9.99602 | 44 ft | 10 kts | 50° |
| 2026-04-23 18:11 | 53.63227 | 9.99697 | 45 ft | 11 kts | 76° |
| 2026-04-23 18:11 | 53.63190 | 9.99792 | 45 ft | 10 kts | 154° |
| 2026-04-23 18:11 | 53.63129 | 9.99844 | 45 ft | 11 kts | 153° |
| 2026-04-23 18:11 | 53.63051 | 9.99910 | 45 ft | 12 kts | 152° |
| 2026-04-23 18:12 | 53.62981 | 9.99972 | 46 ft | 9 kts | 153° |
| 2026-04-23 18:12 | 53.62948 | 10.00049 | 46 ft | 8 kts | 99° |
| 2026-04-23 18:12 | 53.62924 | 10.00129 | 46 ft | 7 kts | 123° |
| 2026-04-23 18:12 | 53.62900 | 10.00191 | 46 ft | 3 kts | 123° |
| 2026-04-23 18:13 | 53.62892 | 10.00213 | 46 ft | 0 kts | 123° |